MiSS Carolyn — WDC8397 — position and weather

sailwx.info

Track history (hours):
 
Tides and Currents Weather Stations Pressure Air Temp Water Temp Dewpoint Dewpoint Depression Visibility Wind Speed Wind Dir Waves Ship Positions

MiSS Carolyn

Owner: Premier Tugs L.L.C., New Iberia, LA. More information available from US FCC via Universal Licensing System and Coast Guard Vessel Documentation Center.

Last reported at 2018-Jun-17 22:32 UTC. Time now 2018-Jun-24 04:57 UTC.
Position N 28°58' W 095°17'.

Length 18 m.

Type: Towing. MMSI: 367086338.

Date/timePositionNaut miles runAvg speedWind from/ knotsBaromVisibWave heightAir tempDewpointWater temp
2018-Jun-17 22:32N 28°58' W 095°17'0 6.9
2018-Jun-17 22:30N 28°58' W 095°17'4 7.2
2018-Jun-17 21:59N 29°01' W 095°14'4 7.8
2018-Jun-17 21:30N 29°04' W 095°13'4 7.5
2018-Jun-17 21:00N 29°08' W 095°11'4 7.1
2018-Jun-17 20:30N 29°10' W 095°08'3 7.0
2018-Jun-17 20:00N 29°12' W 095°04'3 6.9
2018-Jun-17 19:30N 29°14' W 095°01'4 7.2
2018-Jun-17 19:00N 29°17' W 094°59'4 7.2
2018-Jun-17 18:30N 29°17' W 094°54'2 4.7
2018-Jun-17 18:00N 29°19' W 094°52'3 6.8
2018-Jun-17 17:30N 29°21' W 094°49'24 6.2
2018-Jun-17 13:42N 29°34' W 094°27'1 7.1
2018-Jun-17 13:30N 29°34' W 094°25'3 5.8
2018-Jun-17 13:00N 29°36' W 094°23'4 7.8
2018-Jun-17 12:30N 29°38' W 094°19'4 7.5
2018-Jun-17 12:00N 29°40' W 094°15'4 7.6
2018-Jun-17 11:30N 29°41' W 094°11'4 8.0
2018-Jun-17 11:00N 29°43' W 094°07'4 8.1
2018-Jun-17 10:30N 29°46' W 094°03'4 7.7
2018-Jun-17 10:00N 29°48' W 094°00'3 6.8
2018-Jun-17 09:30N 29°51' W 093°57'4 7.7
2018-Jun-17 09:00N 29°54' W 093°55'4 7.9
2018-Jun-17 08:30N 29°57' W 093°52'3 6.3
2018-Jun-17 08:00N 29°59' W 093°49'4 8.0
2018-Jun-17 07:30N 30°01' W 093°45'4 7.3
2018-Jun-17 07:00N 30°03' W 093°42'4 7.6
2018-Jun-17 06:30N 30°04' W 093°38'4 7.4
2018-Jun-17 06:00N 30°04' W 093°33'4 7.3
2018-Jun-17 05:30N 30°04' W 093°29'4 7.1
2018-Jun-17 05:00N 30°04' W 093°25'3 6.1
2018-Jun-17 04:30N 30°04' W 093°22'4 7.4
2018-Jun-17 04:00N 30°06' W 093°18'1 2.5
2018-Jun-17 03:30N 30°05' W 093°17'1 1.6
2018-Jun-17 03:00N 30°05' W 093°17'0 0.0
2018-Jun-17 02:30N 30°05' W 093°17'0 0.0
2018-Jun-17 02:00N 30°05' W 093°17'0 0.1
2018-Jun-17 01:30N 30°05' W 093°17'3 6.9
2018-Jun-17 01:00N 30°02' W 093°15'4 7.1
2018-Jun-17 00:30N 29°59' W 093°12'4 7.6
2018-Jun-17 00:00N 29°56' W 093°09'41 6.8
2018-Jun-16 18:04N 29°52' W 092°23'1 6.9
2018-Jun-16 17:51N 29°51' W 092°22'2 6.9
2018-Jun-16 17:30N 29°50' W 092°19'3 6.5
2018-Jun-16 17:00N 29°49' W 092°16'3 7.0
2018-Jun-16 16:30N 29°47' W 092°12'3 6.3
2018-Jun-16 16:00N 29°47' W 092°09'4 7.7
2018-Jun-16 15:29N 29°48' W 092°04'4 8.2
2018-Jun-16 15:00N 29°50' W 092°00'58 5.0
2018-Jun-16 03:32N 29°34' W 090°56'1 7.0
2018-Jun-16 03:26N 29°34' W 090°55'3 7.3
2018-Jun-16 03:00N 29°32' W 090°52'4 7.6
2018-Jun-16 02:30N 29°32' W 090°48'3 6.6
2018-Jun-16 02:00N 29°34' W 090°45'3 5.7
2018-Jun-16 01:30N 29°36' W 090°43'2 3.9
2018-Jun-16 01:00N 29°36' W 090°40'0 0.0
2018-Jun-16 00:30N 29°36' W 090°40'0 0.0
2018-Jun-16 00:00N 29°36' W 090°40'0 0.9
2018-Jun-15 23:29N 29°36' W 090°40'0 0.0
2018-Jun-15 23:00N 29°36' W 090°40'0 0.8
2018-Jun-15 22:30N 29°36' W 090°39'3 6.1
2018-Jun-15 22:00N 29°35' W 090°36'3 6.3
2018-Jun-15 21:30N 29°34' W 090°33'3 6.6
2018-Jun-15 21:00N 29°34' W 090°29'  
2018-Jun-12 23:10N 29°34' W 090°29'1 7.2
2018-Jun-12 23:00N 29°34' W 090°31'4 7.2
2018-Jun-12 22:30N 29°34' W 090°35'3 6.5
2018-Jun-12 22:00N 29°35' W 090°38'2 3.6
2018-Jun-12 21:30N 29°36' W 090°40'0 0.0
2018-Jun-12 21:00N 29°36' W 090°40'0 0.0
2018-Jun-12 20:30N 29°36' W 090°40'0 0.0
2018-Jun-12 20:00N 29°36' W 090°40'0 0.0
2018-Jun-12 19:30N 29°36' W 090°40'0 0.0
2018-Jun-12 19:00N 29°36' W 090°40'0 0.0
2018-Jun-12 18:30N 29°36' W 090°40'0 0.0
2018-Jun-12 18:00N 29°36' W 090°40'0 0.0
2018-Jun-12 17:30N 29°36' W 090°40'0 0.0
2018-Jun-12 17:00N 29°36' W 090°40'0 0.0
2018-Jun-12 16:30N 29°36' W 090°40'2 4.6
2018-Jun-12 16:00N 29°35' W 090°38'1 2.1
2018-Jun-12 15:30N 29°35' W 090°37'3 6.7
2018-Jun-12 15:00N 29°36' W 090°40'0 0.0
2018-Jun-12 14:30N 29°36' W 090°40'0 0.0
2018-Jun-12 14:00N 29°36' W 090°40'0 0.0
2018-Jun-12 13:30N 29°36' W 090°40'0 0.0
2018-Jun-12 13:00N 29°36' W 090°40'0 0.8
2018-Jun-12 12:30N 29°36' W 090°40'2 4.4
2018-Jun-12 12:00N 29°37' W 090°42'3 5.5
2018-Jun-12 11:30N 29°34' W 090°43'3 5.8
2018-Jun-12 11:00N 29°32' W 090°46'61 4.0
2018-Jun-11 19:46N 29°51' W 091°53'2 6.0
2018-Jun-11 19:30N 29°51' W 091°55'3 5.4
2018-Jun-11 19:00N 29°50' W 091°58'3 5.1
2018-Jun-11 18:30N 29°49' W 092°01'3 5.2
2018-Jun-11 18:00N 29°49' W 092°04'3 5.1
2018-Jun-11 17:30N 29°48' W 092°06'2 4.0
2018-Jun-11 17:00N 29°47' W 092°09'2 4.6
2018-Jun-11 16:30N 29°49' W 092°08'2 3.8
2018-Jun-11 15:59N 29°51' W 092°07'2 3.2
2018-Jun-11 15:28N 29°53' W 092°08'1 0.3
2018-Jun-11 13:22N 29°54' W 092°07'0 0.0
2018-Jun-10 21:50N 29°54' W 092°07'1 1.7
2018-Jun-10 21:30N 29°53' W 092°08'1 2.7
2018-Jun-10 21:00N 29°52' W 092°08'2 3.2
2018-Jun-10 20:30N 29°50' W 092°08'2 3.7
2018-Jun-10 20:00N 29°48' W 092°08'1 2.6
2018-Jun-10 19:30N 29°47' W 092°07'3 6.5
2018-Jun-10 19:00N 29°49' W 092°04'3 6.1
2018-Jun-10 18:30N 29°50' W 092°00'56 4.4
2018-Jun-10 05:48N 29°36' W 090°58'2 5.6
2018-Jun-10 05:24N 29°34' W 090°56'3 5.9
2018-Jun-10 04:57N 29°33' W 090°54'3 5.5
2018-Jun-10 04:30N 29°32' W 090°51'3 5.6
2018-Jun-10 04:00N 29°32' W 090°48'2 4.8
2018-Jun-10 03:30N 29°33' W 090°45'2 4.4
2018-Jun-10 03:00N 29°34' W 090°43'2 5.0
2018-Jun-10 02:30N 29°37' W 090°42'2 4.6
2018-Jun-10 02:00N 29°36' W 090°40'0 0.2
2018-Jun-10 01:30N 29°36' W 090°40'0 0.8
2018-Jun-10 00:56N 29°36' W 090°40'0 0.0
2018-Jun-10 00:30N 29°36' W 090°40'0 0.0
2018-Jun-10 00:00N 29°36' W 090°40'0 0.0
2018-Jun-09 23:30N 29°36' W 090°40'0 0.0
2018-Jun-09 23:00N 29°36' W 090°40'0 0.0
2018-Jun-09 22:30N 29°36' W 090°40'0 0.0
2018-Jun-09 22:00N 29°36' W 090°40'0 0.9
2018-Jun-09 21:30N 29°36' W 090°40'0 0.0
2018-Jun-09 21:00N 29°36' W 090°40'0 0.0
2018-Jun-09 20:30N 29°36' W 090°40'3 5.5
2018-Jun-09 20:00N 29°35' W 090°37'3 6.3
2018-Jun-09 19:29N 29°34' W 090°33'1 1.9
2018-Jun-09 18:55N 29°34' W 090°32'0 0.0
2018-Jun-09 18:29N 29°34' W 090°32'0 0.0
2018-Jun-09 17:57N 29°34' W 090°32'0 0.1
2018-Jun-09 17:00N 29°34' W 090°32'0 0.0
2018-Jun-09 16:29N 29°34' W 090°32'0 0.0
2018-Jun-09 16:00N 29°34' W 090°32'0 0.0
2018-Jun-09 15:00N 29°34' W 090°32'0 0.0
2018-Jun-09 14:15N 29°34' W 090°32'0 0.0
2018-Jun-09 13:50N 29°34' W 090°32'0 0.0
2018-Jun-09 13:30N 29°34' W 090°32'0 0.0
2018-Jun-09 13:00N 29°34' W 090°32'0 0.0
2018-Jun-09 12:30N 29°34' W 090°32'0 0.0
2018-Jun-09 12:00N 29°34' W 090°32'0 0.0
2018-Jun-09 11:30N 29°34' W 090°32'0 0.0
2018-Jun-09 11:00N 29°34' W 090°32'0 0.0
2018-Jun-09 10:30N 29°34' W 090°32'0 0.0
2018-Jun-09 10:00N 29°34' W 090°32'0 0.0
2018-Jun-09 09:29N 29°34' W 090°32'0 0.0
2018-Jun-09 09:00N 29°34' W 090°32'0 0.0
2018-Jun-09 08:30N 29°34' W 090°32'0 0.0
2018-Jun-09 08:00N 29°34' W 090°32'0 0.0
2018-Jun-09 07:30N 29°34' W 090°32'0 0.0
2018-Jun-09 07:00N 29°34' W 090°32'0 0.0
2018-Jun-09 06:28N 29°34' W 090°32'0 0.0
2018-Jun-09 06:00N 29°34' W 090°32'0 0.0
2018-Jun-09 05:30N 29°34' W 090°32'0 0.0
2018-Jun-09 04:59N 29°34' W 090°32'0 0.0
2018-Jun-09 04:30N 29°34' W 090°32'0 0.0
2018-Jun-09 04:00N 29°34' W 090°32'0 0.0
2018-Jun-09 03:28N 29°34' W 090°32'0 0.0
2018-Jun-09 03:00N 29°34' W 090°32'0 0.0
2018-Jun-09 02:30N 29°34' W 090°32'0 0.0
2018-Jun-09 02:00N 29°34' W 090°32'0 0.0
2018-Jun-09 01:30N 29°34' W 090°32'0 0.0
2018-Jun-09 00:58N 29°34' W 090°32'0 0.0
2018-Jun-09 00:30N 29°34' W 090°32'0 0.0
2018-Jun-08 23:56N 29°34' W 090°32'0 0.0
2018-Jun-08 23:28N 29°34' W 090°32'0 0.0
2018-Jun-08 22:58N 29°34' W 090°32'0 0.0
2018-Jun-08 22:30N 29°34' W 090°32'0 0.0
2018-Jun-08 21:59N 29°34' W 090°32'0 0.0
2018-Jun-08 21:25N 29°34' W 090°32'0 0.0
2018-Jun-08 21:00N 29°34' W 090°32'0 0.0
2018-Jun-08 20:28N 29°34' W 090°32'0 0.0
2018-Jun-08 19:50N 29°34' W 090°32'0 0.0
2018-Jun-08 15:44N 29°34' W 090°32'0 0.0
2018-Jun-08 15:15N 29°34' W 090°32'0 0.0
2018-Jun-08 14:50N 29°34' W 090°32'0 0.0
2018-Jun-08 13:12N 29°34' W 090°32'0 0.2
2018-Jun-08 13:00N 29°34' W 090°32'0 0.0
2018-Jun-08 12:30N 29°34' W 090°32'0 0.0
2018-Jun-08 12:00N 29°34' W 090°32'0 0.0
2018-Jun-08 11:30N 29°34' W 090°32'0 0.0
2018-Jun-08 11:00N 29°34' W 090°32'0 0.0
2018-Jun-08 10:30N 29°34' W 090°32'0 0.0
2018-Jun-08 10:00N 29°34' W 090°32'0 0.0
2018-Jun-08 09:30N 29°34' W 090°32'0 0.0
2018-Jun-08 09:00N 29°34' W 090°32'0 0.0
2018-Jun-08 08:30N 29°34' W 090°32'0 0.0
2018-Jun-08 08:00N 29°34' W 090°32'0 0.0
2018-Jun-08 07:30N 29°34' W 090°32'0 0.0
2018-Jun-08 07:00N 29°34' W 090°32'0 0.0
2018-Jun-08 06:29N 29°34' W 090°32'0 0.0
2018-Jun-08 06:00N 29°34' W 090°32'0 0.0
2018-Jun-08 05:30N 29°34' W 090°32'0 0.0
2018-Jun-08 05:00N 29°34' W 090°32'0 0.0
2018-Jun-08 04:30N 29°34' W 090°32'0 0.0
2018-Jun-08 04:00N 29°34' W 090°32'0 0.0
2018-Jun-08 03:30N 29°34' W 090°32'0 0.0
2018-Jun-08 03:00N 29°34' W 090°32'0 0.0
2018-Jun-08 02:29N 29°34' W 090°32'0 0.0
2018-Jun-08 01:42N 29°34' W 090°32'0 0.0
2018-Jun-08 01:27N 29°34' W 090°32'0 0.0
2018-Jun-08 00:58N 29°34' W 090°32'  
Track history (hours):
 
Tides and Currents Weather Stations Pressure Air Temp Water Temp Dewpoint Dewpoint Depression Visibility Wind Speed Wind Dir Waves Ship Positions

MiSS Carolyn

Owner: Premier Tugs L.L.C., New Iberia, LA. More information available from US FCC via Universal Licensing System and Coast Guard Vessel Documentation Center.

Last reported at 2018-Jun-17 22:32 UTC. Time now 2018-Jun-24 04:57 UTC.
Position N 28°58' W 095°17'.

Length 18 m.

Type: Towing. MMSI: 367086338.

Date/timePositionNaut miles runAvg speedWind from/ knotsBaromVisibWave heightAir tempDewpointWater temp
2018-Jun-17 22:32N 28°58' W 095°17'0 6.9
2018-Jun-17 22:30N 28°58' W 095°17'4 7.2
2018-Jun-17 21:59N 29°01' W 095°14'4 7.8
2018-Jun-17 21:30N 29°04' W 095°13'4 7.5
2018-Jun-17 21:00N 29°08' W 095°11'4 7.1
2018-Jun-17 20:30N 29°10' W 095°08'3 7.0
2018-Jun-17 20:00N 29°12' W 095°04'3 6.9
2018-Jun-17 19:30N 29°14' W 095°01'4 7.2
2018-Jun-17 19:00N 29°17' W 094°59'4 7.2
2018-Jun-17 18:30N 29°17' W 094°54'2 4.7
2018-Jun-17 18:00N 29°19' W 094°52'3 6.8
2018-Jun-17 17:30N 29°21' W 094°49'24 6.2
2018-Jun-17 13:42N 29°34' W 094°27'1 7.1
2018-Jun-17 13:30N 29°34' W 094°25'3 5.8
2018-Jun-17 13:00N 29°36' W 094°23'4 7.8
2018-Jun-17 12:30N 29°38' W 094°19'4 7.5
2018-Jun-17 12:00N 29°40' W 094°15'4 7.6
2018-Jun-17 11:30N 29°41' W 094°11'4 8.0
2018-Jun-17 11:00N 29°43' W 094°07'4 8.1
2018-Jun-17 10:30N 29°46' W 094°03'4 7.7
2018-Jun-17 10:00N 29°48' W 094°00'3 6.8
2018-Jun-17 09:30N 29°51' W 093°57'4 7.7
2018-Jun-17 09:00N 29°54' W 093°55'4 7.9
2018-Jun-17 08:30N 29°57' W 093°52'3 6.3
2018-Jun-17 08:00N 29°59' W 093°49'4 8.0
2018-Jun-17 07:30N 30°01' W 093°45'4 7.3
2018-Jun-17 07:00N 30°03' W 093°42'4 7.6
2018-Jun-17 06:30N 30°04' W 093°38'4 7.4
2018-Jun-17 06:00N 30°04' W 093°33'4 7.3
2018-Jun-17 05:30N 30°04' W 093°29'4 7.1
2018-Jun-17 05:00N 30°04' W 093°25'3 6.1
2018-Jun-17 04:30N 30°04' W 093°22'4 7.4
2018-Jun-17 04:00N 30°06' W 093°18'1 2.5
2018-Jun-17 03:30N 30°05' W 093°17'1 1.6
2018-Jun-17 03:00N 30°05' W 093°17'0 0.0
2018-Jun-17 02:30N 30°05' W 093°17'0 0.0
2018-Jun-17 02:00N 30°05' W 093°17'0 0.1
2018-Jun-17 01:30N 30°05' W 093°17'3 6.9
2018-Jun-17 01:00N 30°02' W 093°15'4 7.1
2018-Jun-17 00:30N 29°59' W 093°12'4 7.6
2018-Jun-17 00:00N 29°56' W 093°09'41 6.8
2018-Jun-16 18:04N 29°52' W 092°23'1 6.9
2018-Jun-16 17:51N 29°51' W 092°22'2 6.9
2018-Jun-16 17:30N 29°50' W 092°19'3 6.5
2018-Jun-16 17:00N 29°49' W 092°16'3 7.0
2018-Jun-16 16:30N 29°47' W 092°12'3 6.3
2018-Jun-16 16:00N 29°47' W 092°09'4 7.7
2018-Jun-16 15:29N 29°48' W 092°04'4 8.2
2018-Jun-16 15:00N 29°50' W 092°00'58 5.0
2018-Jun-16 03:32N 29°34' W 090°56'1 7.0
2018-Jun-16 03:26N 29°34' W 090°55'3 7.3
2018-Jun-16 03:00N 29°32' W 090°52'4 7.6
2018-Jun-16 02:30N 29°32' W 090°48'3 6.6
2018-Jun-16 02:00N 29°34' W 090°45'3 5.7
2018-Jun-16 01:30N 29°36' W 090°43'2 3.9
2018-Jun-16 01:00N 29°36' W 090°40'0 0.0
2018-Jun-16 00:30N 29°36' W 090°40'0 0.0
2018-Jun-16 00:00N 29°36' W 090°40'0 0.9
2018-Jun-15 23:29N 29°36' W 090°40'0 0.0
2018-Jun-15 23:00N 29°36' W 090°40'0 0.8
2018-Jun-15 22:30N 29°36' W 090°39'3 6.1
2018-Jun-15 22:00N 29°35' W 090°36'3 6.3
2018-Jun-15 21:30N 29°34' W 090°33'3 6.6
2018-Jun-15 21:00N 29°34' W 090°29'  
2018-Jun-12 23:10N 29°34' W 090°29'1 7.2
2018-Jun-12 23:00N 29°34' W 090°31'4 7.2
2018-Jun-12 22:30N 29°34' W 090°35'3 6.5
2018-Jun-12 22:00N 29°35' W 090°38'2 3.6
2018-Jun-12 21:30N 29°36' W 090°40'0 0.0
2018-Jun-12 21:00N 29°36' W 090°40'0 0.0
2018-Jun-12 20:30N 29°36' W 090°40'0 0.0
2018-Jun-12 20:00N 29°36' W 090°40'0 0.0
2018-Jun-12 19:30N 29°36' W 090°40'0 0.0
2018-Jun-12 19:00N 29°36' W 090°40'0 0.0
2018-Jun-12 18:30N 29°36' W 090°40'0 0.0
2018-Jun-12 18:00N 29°36' W 090°40'0 0.0
2018-Jun-12 17:30N 29°36' W 090°40'0 0.0
2018-Jun-12 17:00N 29°36' W 090°40'0 0.0
2018-Jun-12 16:30N 29°36' W 090°40'2 4.6
2018-Jun-12 16:00N 29°35' W 090°38'1 2.1
2018-Jun-12 15:30N 29°35' W 090°37'3 6.7
2018-Jun-12 15:00N 29°36' W 090°40'0 0.0
2018-Jun-12 14:30N 29°36' W 090°40'0 0.0
2018-Jun-12 14:00N 29°36' W 090°40'0 0.0
2018-Jun-12 13:30N 29°36' W 090°40'0 0.0
2018-Jun-12 13:00N 29°36' W 090°40'0 0.8
2018-Jun-12 12:30N 29°36' W 090°40'2 4.4
2018-Jun-12 12:00N 29°37' W 090°42'3 5.5
2018-Jun-12 11:30N 29°34' W 090°43'3 5.8
2018-Jun-12 11:00N 29°32' W 090°46'61 4.0
2018-Jun-11 19:46N 29°51' W 091°53'2 6.0
2018-Jun-11 19:30N 29°51' W 091°55'3 5.4
2018-Jun-11 19:00N 29°50' W 091°58'3 5.1
2018-Jun-11 18:30N 29°49' W 092°01'3 5.2
2018-Jun-11 18:00N 29°49' W 092°04'3 5.1
2018-Jun-11 17:30N 29°48' W 092°06'2 4.0
2018-Jun-11 17:00N 29°47' W 092°09'2 4.6
2018-Jun-11 16:30N 29°49' W 092°08'2 3.8
2018-Jun-11 15:59N 29°51' W 092°07'2 3.2
2018-Jun-11 15:28N 29°53' W 092°08'1 0.3
2018-Jun-11 13:22N 29°54' W 092°07'0 0.0
2018-Jun-10 21:50N 29°54' W 092°07'1 1.7
2018-Jun-10 21:30N 29°53' W 092°08'1 2.7
2018-Jun-10 21:00N 29°52' W 092°08'2 3.2
2018-Jun-10 20:30N 29°50' W 092°08'2 3.7
2018-Jun-10 20:00N 29°48' W 092°08'1 2.6
2018-Jun-10 19:30N 29°47' W 092°07'3 6.5
2018-Jun-10 19:00N 29°49' W 092°04'3 6.1
2018-Jun-10 18:30N 29°50' W 092°00'56 4.4
2018-Jun-10 05:48N 29°36' W 090°58'2 5.6
2018-Jun-10 05:24N 29°34' W 090°56'3 5.9
2018-Jun-10 04:57N 29°33' W 090°54'3 5.5
2018-Jun-10 04:30N 29°32' W 090°51'3 5.6
2018-Jun-10 04:00N 29°32' W 090°48'2 4.8
2018-Jun-10 03:30N 29°33' W 090°45'2 4.4
2018-Jun-10 03:00N 29°34' W 090°43'2 5.0
2018-Jun-10 02:30N 29°37' W 090°42'2 4.6
2018-Jun-10 02:00N 29°36' W 090°40'0 0.2
2018-Jun-10 01:30N 29°36' W 090°40'0 0.8
2018-Jun-10 00:56N 29°36' W 090°40'0 0.0
2018-Jun-10 00:30N 29°36' W 090°40'0 0.0
2018-Jun-10 00:00N 29°36' W 090°40'0 0.0
2018-Jun-09 23:30N 29°36' W 090°40'0 0.0
2018-Jun-09 23:00N 29°36' W 090°40'0 0.0
2018-Jun-09 22:30N 29°36' W 090°40'0 0.0
2018-Jun-09 22:00N 29°36' W 090°40'0 0.9
2018-Jun-09 21:30N 29°36' W 090°40'0 0.0
2018-Jun-09 21:00N 29°36' W 090°40'0 0.0
2018-Jun-09 20:30N 29°36' W 090°40'3 5.5
2018-Jun-09 20:00N 29°35' W 090°37'3 6.3
2018-Jun-09 19:29N 29°34' W 090°33'1 1.9
2018-Jun-09 18:55N 29°34' W 090°32'0 0.0
2018-Jun-09 18:29N 29°34' W 090°32'0 0.0
2018-Jun-09 17:57N 29°34' W 090°32'0 0.1
2018-Jun-09 17:00N 29°34' W 090°32'0 0.0
2018-Jun-09 16:29N 29°34' W 090°32'0 0.0
2018-Jun-09 16:00N 29°34' W 090°32'0 0.0
2018-Jun-09 15:00N 29°34' W 090°32'0 0.0
2018-Jun-09 14:15N 29°34' W 090°32'0 0.0
2018-Jun-09 13:50N 29°34' W 090°32'0 0.0
2018-Jun-09 13:30N 29°34' W 090°32'0 0.0
2018-Jun-09 13:00N 29°34' W 090°32'0 0.0
2018-Jun-09 12:30N 29°34' W 090°32'0 0.0
2018-Jun-09 12:00N 29°34' W 090°32'0 0.0
2018-Jun-09 11:30N 29°34' W 090°32'0 0.0
2018-Jun-09 11:00N 29°34' W 090°32'0 0.0
2018-Jun-09 10:30N 29°34' W 090°32'0 0.0
2018-Jun-09 10:00N 29°34' W 090°32'0 0.0
2018-Jun-09 09:29N 29°34' W 090°32'0 0.0
2018-Jun-09 09:00N 29°34' W 090°32'0 0.0
2018-Jun-09 08:30N 29°34' W 090°32'0 0.0
2018-Jun-09 08:00N 29°34' W 090°32'0 0.0
2018-Jun-09 07:30N 29°34' W 090°32'0 0.0
2018-Jun-09 07:00N 29°34' W 090°32'0 0.0
2018-Jun-09 06:28N 29°34' W 090°32'0 0.0
2018-Jun-09 06:00N 29°34' W 090°32'0 0.0
2018-Jun-09 05:30N 29°34' W 090°32'0 0.0
2018-Jun-09 04:59N 29°34' W 090°32'0 0.0
2018-Jun-09 04:30N 29°34' W 090°32'0 0.0
2018-Jun-09 04:00N 29°34' W 090°32'0 0.0
2018-Jun-09 03:28N 29°34' W 090°32'0 0.0
2018-Jun-09 03:00N 29°34' W 090°32'0 0.0
2018-Jun-09 02:30N 29°34' W 090°32'0 0.0
2018-Jun-09 02:00N 29°34' W 090°32'0 0.0
2018-Jun-09 01:30N 29°34' W 090°32'0 0.0
2018-Jun-09 00:58N 29°34' W 090°32'0 0.0
2018-Jun-09 00:30N 29°34' W 090°32'0 0.0
2018-Jun-08 23:56N 29°34' W 090°32'0 0.0
2018-Jun-08 23:28N 29°34' W 090°32'0 0.0
2018-Jun-08 22:58N 29°34' W 090°32'0 0.0
2018-Jun-08 22:30N 29°34' W 090°32'0 0.0
2018-Jun-08 21:59N 29°34' W 090°32'0 0.0
2018-Jun-08 21:25N 29°34' W 090°32'0 0.0
2018-Jun-08 21:00N 29°34' W 090°32'0 0.0
2018-Jun-08 20:28N 29°34' W 090°32'0 0.0
2018-Jun-08 19:50N 29°34' W 090°32'0 0.0
2018-Jun-08 15:44N 29°34' W 090°32'0 0.0
2018-Jun-08 15:15N 29°34' W 090°32'0 0.0
2018-Jun-08 14:50N 29°34' W 090°32'0 0.0
2018-Jun-08 13:12N 29°34' W 090°32'0 0.2
2018-Jun-08 13:00N 29°34' W 090°32'0 0.0
2018-Jun-08 12:30N 29°34' W 090°32'0 0.0
2018-Jun-08 12:00N 29°34' W 090°32'0 0.0
2018-Jun-08 11:30N 29°34' W 090°32'0 0.0
2018-Jun-08 11:00N 29°34' W 090°32'0 0.0
2018-Jun-08 10:30N 29°34' W 090°32'0 0.0
2018-Jun-08 10:00N 29°34' W 090°32'0 0.0
2018-Jun-08 09:30N 29°34' W 090°32'0 0.0
2018-Jun-08 09:00N 29°34' W 090°32'0 0.0
2018-Jun-08 08:30N 29°34' W 090°32'0 0.0
2018-Jun-08 08:00N 29°34' W 090°32'0 0.0
2018-Jun-08 07:30N 29°34' W 090°32'0 0.0
2018-Jun-08 07:00N 29°34' W 090°32'0 0.0
2018-Jun-08 06:29N 29°34' W 090°32'0 0.0
2018-Jun-08 06:00N 29°34' W 090°32'0 0.0
2018-Jun-08 05:30N 29°34' W 090°32'0 0.0
2018-Jun-08 05:00N 29°34' W 090°32'0 0.0
2018-Jun-08 04:30N 29°34' W 090°32'0 0.0
2018-Jun-08 04:00N 29°34' W 090°32'0 0.0
2018-Jun-08 03:30N 29°34' W 090°32'0 0.0
2018-Jun-08 03:00N 29°34' W 090°32'0 0.0
2018-Jun-08 02:29N 29°34' W 090°32'0 0.0
2018-Jun-08 01:42N 29°34' W 090°32'0 0.0
2018-Jun-08 01:27N 29°34' W 090°32'0 0.0
2018-Jun-08 00:58N 29°34' W 090°32'  

Dump ship's entire track history